Thursday, December 18, 2014
16:21 UTC
  |  Log In   |  Register Free
Airport Search:

Indiana County/Jimmy Stewart Fld/ Airport
(KIDI)

Indiana County/Jimmy Stewart Fld/ Airport Diagram
No Airport Diagram Available

FAA data valid effective November 13, 2014 - January 08, 2015 (unless otherwise noted).

 
 
 
 
 
 
 
 
 
 
 
 
 
 

Current Aviation Weather for Indiana County/Jimmy Stewart Fld/ Airport (KIDI)

The most recent METAR observation for KIDI was updated at: 1618
METAR Summary (Translated METAR)
KIDI
181615Z AUTO 28007KT 10SM OVC016 M02/M04 A3017 RMK A01
KJST
181601Z AUTO 28007KT 4SM HZ BKN013 OVC020 M04/M07 A3007 RMK AO2 T10441072
(22.7 nm SE from KIDI)
KLBE
181550Z 27012KT 7SM -SN OVC025 M02/M05 A3020
(25.5 nm SW from KIDI)
TAF Summary (Translated TAF)
KJST
(22.7 nm SE from KIDI)
181428Z 1814/1912 27007G16KT P6SM BKN010 OVC014
KLBE
(25.5 nm SW from KIDI)
181459Z 1815/1912 28012KT P6SM -SN OVC020 FM182200 28006KT P6SM OVC025 FM190400 27008KT 4SM -SN OVC010
  Airport Weather Conditions for KIDI

 Current Weather at IDI
28° F
Overcast
West winds at 8.1 mph
IDI NOAA Radar

Pressure: 30.17 in
Humidity: 86%
Wind: West at 8.1 MPH (7 KT)
Dew Point: 24.8°F
Visibility: 9.00 mi


Airport Weather Forecast for KIDI

Translated METAR and TAF for KIDI
Translated METAR for KIDI (1622 UTC 18 December 2014)
found at http://aviationweather.gov/adds/metars/
 
METAR text: KIDI 181615Z AUTO 28007KT 10SM OVC016 M02/M04 A3017 RMK A01
Conditions at: KIDI (INDIANA/STEWART , PA, US) observed 1615 UTC 18 December 2014
Temperature: -2.0°C (28°F)
Dewpoint: -4.0°C (25°F) [RH = 86%]
Pressure (altimeter): 30.17 inches Hg (1021.8 mb)
Winds: from the W (280 degrees) at 8 MPH (7 knots; 3.6 m/s)
Visibility: 10 or more miles (16+ km)
Ceiling: 1600 feet AGL
Clouds: overcast cloud deck at 1600 feet AGL
Weather: automated observation with no human augmentation;
there may or may not be significant weather present at this time
Translated TAF for KIDI

There is no translated TAF available for this airport

Find All Airport Services Find A Hotel Find A Rental Car Find A Golf Course Find A Restaurant $100 Hamburger



FBO's on the Field
FBO Company Facility Photos Services Transportation Aviation Fuel Prices: Prices include tax
Catering Weather Repair Courtesy Rental Type 100LL JetA JetA+ MOGAS 8087
 
Indiana County Jimmy Stewart Airport

Currently rated 5 by 1 person
FS:Phillips 66
Last Updated: Dec-03
Login to update fuel prices
SS:
Contact Indiana County Jimmy Stewart AirportMore FBO Information
 
Add another FBO Facility Photos Catering Weather Repair Courtesy Rental Type 100LL JetA JetA+ MOGAS 8087
Services Transportation Aviation Fuel Prices: Prices include tax


model-print
model-print
model-print
model-print